Terminal Aerodrome Forecast
Issued by NWS

Home | Current Version | Previous Version | Text Only | Print | Product List | Glossary Off
Versions: 1 2 3 4 5 6 7 8 9 10 11 12 13 14 15 16 17 18 19 20

000
FTUS43 KBIS 302300
TAFMOT
TAF
KMOT 302334Z 3100/3124 02005KT P6SM SKC
     FM310400 09005KT P6SM SKC
     FM311100 15009KT P6SM SKC
     FM311600 15014G22KT P6SM FEW250=

USA.gov is the U.S. government's official web portal to all federal, state and local government web resources and services.